Vaaraa aiheuttavia sääilmiöitä ei ole odotettavissa.    Ei varoituksia

Webkamera Lisätietoa Webcam


Yksityisiä sääasemia lähellä:

Sääasema Juupajoki

Sääasema Orivesi

Sääasema Muurame

Sääasema Jyväskylä

Sääasema Vihtavuori


Löydät sääaseman tiedot myös:

Finland Weather Exchange

European Weather Network

Weather Underground

AWEKAS

Windy.com



Säätiedot lähimmiltä METAR asemilta

   
EFHA - Halli (Fin-Afb), Finland
Etäisyys asemalta: Kaakko 25 km
Päivitetty: 24.09.2020 08:20
Utua, Pilvistä  
Utua, Pilvistä  
   Tuuli: Eteläkaakko 2.6 m/s
Tuuli: Eteläkaakko 2.6 m/s
Lämpötila: 12°C
Kastepiste: 12°C
Kosteus: 100%
Ilmanpaine: 1004 hPa
Pilvisyys: Pilvistä
Näkyvyys: 1 km
Pilvitiedot: Pilvistä 31 m
EFHA 240520Z 16005KT 140V200 1300 R26/1900D BR OVC001 12/12 Q1004
EFJY - Jyvaskyla (Mil/Civ), Finland
Etäisyys asemalta: Koillinen 75 km
Päivitetty: 24.09.2020 08:20
Sumua, Pilvistä  
Sumua, Pilvistä  
   Tuuli: Etelä 2.6 m/s
Tuuli: Etelä 2.6 m/s
Lämpötila: 11°C
Kastepiste: 11°C
Kosteus: 100%
Ilmanpaine: 1005 hPa
Pilvisyys: Pilvistä
Näkyvyys: 1 km
Pilvitiedot: Pilvistä 31 m
EFJY 240520Z 17005KT 140V200 0800 R30/1800D FG VV001 11/11 Q1005
EFTP - Tampere/Pirkkala, Finland
Etäisyys asemalta: Lounas 81 km
Päivitetty: 24.09.2020 08:20
Melkein pilvistä  
Melkein pilvistä  
   Tuuli: Etelä 3.1 m/s
Tuuli: Etelä 3.1 m/s
Lämpötila: 13°C
Kastepiste: 12°C
Kosteus: 94%
Ilmanpaine: 1004 hPa
Pilvisyys: Melkein pilvistä
Näkyvyys: 5 km
Pilvitiedot: Melkein pilvistä 91 m
EFTP 240520Z 17006KT 140V210 5000 BKN003 13/12 Q1004
EFSI - Seinajoki-Ilmajoki, Finland
Etäisyys asemalta: Luode 114 km
Päivitetty: 24.09.2020 08:20
Sumua, Melkein pilvistä  
Sumua, Melkein pilvistä  
   Tuuli: Eteläkaakko 2.1 m/s
Tuuli: Eteläkaakko 2.1 m/s
Lämpötila: 11°C
Kastepiste: 11°C
Kosteus: 100%
Ilmanpaine: 1003 hPa
Pilvisyys: Melkein pilvistä
Näkyvyys: 1 km
Pilvitiedot: Melkein pilvistä 31 m
EFSI 240520Z AUTO 16004KT 120V230 0700 FG BKN001 11/11 Q1003
EFMI - Mikkeli, Finland
Etäisyys asemalta: Itäkaakko 147 km
Päivitetty: 24.09.2020 08:20
Sumua, Pilvistä  
Sumua, Pilvistä  
   Tuuli: Etelä 0.5 m/s
Tuuli: Etelä 0.5 m/s
Lämpötila: 11°C
Kastepiste: 11°C
Kosteus: 100%
Ilmanpaine: 1006 hPa
Pilvisyys: Pilvistä
Näkyvyys: 0 km
Pilvitiedot: Pilvistä 61 m
EFMI 240520Z AUTO 18001KT 0250 FG VV002 11/11 Q1006
EFPO - Pori (Mil/Civ), Finland
Etäisyys asemalta: Länsilounas 154 km
Päivitetty: 24.09.2020 08:20
Melkein pilvistä  
Melkein pilvistä  
   Tuuli: Eteläkaakko 4.1 m/s
Tuuli: Eteläkaakko 4.1 m/s
Lämpötila: 13°C
Kastepiste: 13°C
Kosteus: 100%
Ilmanpaine: 1003 hPa
Pilvisyys: Melkein pilvistä
Näkyvyys: 8 km
Pilvitiedot: Melkein pilvistä 183 m
EFPO 240520Z AUTO 15008KT 8000 BKN006 13/13 Q1003
EFUT - Utti (Fin-Afb), Finland
Etäisyys asemalta: Kaakko 180 km
Päivitetty: 24.09.2020 08:20
Sumua, Puolipilvistä  
Sumua, Puolipilvistä  
   Tuuli: Etelä 2.1 m/s
Tuuli: Etelä 2.1 m/s
Lämpötila: 11°C
Kastepiste: 11°C
Kosteus: 100%
Ilmanpaine: 1006 hPa
Pilvisyys: Puolipilvistä
Näkyvyys: 0 km
Pilvitiedot: Puolipilvistä 31 m
EFUT 240520Z 17004KT 0350 R25/0375N FG SCT001 11/11 Q1006
EFVA - Vaasa, Finland
Etäisyys asemalta: Luode 180 km
Päivitetty: 24.09.2020 08:20
Sumua, Pilvistä  
Sumua, Pilvistä  
   Tuuli: Kaakko 2.6 m/s
Tuuli: Kaakko 2.6 m/s
Lämpötila: 11°C
Kastepiste: 11°C
Kosteus: 100%
Ilmanpaine: 1002 hPa
Pilvisyys: Pilvistä
Näkyvyys: 1 km
Pilvitiedot: Pilvistä 91 m
EFVA 240520Z AUTO 14005KT 0700 R16/0900U FG VV003 11/11 Q1002
EFHK - Helsinki/Vantaa, Finland
Etäisyys asemalta: Etelä 191 km
Päivitetty: 24.09.2020 08:20
Sumua, Vähäistä pilvisyyttä  
Sumua, Vähäistä pilvisyyttä  
   Tuuli: Kaakko 2.6 m/s
Tuuli: Kaakko 2.6 m/s
Lämpötila: 11°C
Kastepiste: 11°C
Kosteus: 100%
Ilmanpaine: 1006 hPa
Pilvisyys: Vähäistä pilvisyyttä
Näkyvyys: 0 km
Pilvitiedot: Vähäistä pilvisyyttä 31 m
EFHK 240520Z 13005KT 0400 R04L/0300N R15/0450D R22L/0375U R22R/1200U FG FEW001 11/11 Q1006 BECMG 1500 BR

Alkuperäinen skripti  Saratoga-weather.org Sovitettu myös templatelle  Weerstation Leuven

Laitteet joita käytämme:

Sääasema
Davis VP2

Sääasemaohjelma
Cumulus

Sääaseman palvelin
HP ProBook 6460b

Palveluntarjoaja
Radicenter

Davis VP2

Cumulus

HP ProBook 6460b

Radicenter




Flag Counter Cumulus Top Weather Sites